sensor_id;sensor_type;location;lat;lon;timestamp;P1;durP1;ratioP1;P2;durP2;ratioP2
25497;SDS011;13406;53.380;7.226;2022-12-07T00:01:22;6.27;;;2.07;;
25497;SDS011;13406;53.380;7.226;2022-12-07T00:03:48;4.13;;;2.30;;
25497;SDS011;13406;53.380;7.226;2022-12-07T00:06:14;4.10;;;1.67;;
25497;SDS011;13406;53.380;7.226;2022-12-07T00:08:43;5.50;;;2.23;;
25497;SDS011;13406;53.380;7.226;2022-12-07T00:11:12;7.43;;;1.97;;
25497;SDS011;13406;53.380;7.226;2022-12-07T00:13:38;5.27;;;1.80;;
25497;SDS011;13406;53.380;7.226;2022-12-07T00:18:29;5.50;;;1.73;;
25497;SDS011;13406;53.380;7.226;2022-12-07T00:21:05;5.20;;;1.43;;
25497;SDS011;13406;53.380;7.226;2022-12-07T00:23:30;5.10;;;1.70;;
25497;SDS011;13406;53.380;7.226;2022-12-07T00:26:02;7.53;;;2.30;;
25497;SDS011;13406;53.380;7.226;2022-12-07T00:28:27;5.67;;;1.43;;
25497;SDS011;13406;53.380;7.226;2022-12-07T00:30:59;3.90;;;1.40;;
25497;SDS011;13406;53.380;7.226;2022-12-07T00:33:24;3.00;;;1.10;;
25497;SDS011;13406;53.380;7.226;2022-12-07T00:35:54;7.50;;;1.57;;
25497;SDS011;13406;53.380;7.226;2022-12-07T00:38:19;7.07;;;1.30;;
25497;SDS011;13406;53.380;7.226;2022-12-07T00:40:53;4.43;;;1.20;;
25497;SDS011;13406;53.380;7.226;2022-12-07T00:43:18;8.33;;;1.63;;
25497;SDS011;13406;53.380;7.226;2022-12-07T00:45:43;10.47;;;1.83;;
25497;SDS011;13406;53.380;7.226;2022-12-07T00:48:09;11.13;;;1.80;;
25497;SDS011;13406;53.380;7.226;2022-12-07T00:50:34;3.33;;;1.00;;
25497;SDS011;13406;53.380;7.226;2022-12-07T00:52:59;2.63;;;0.87;;
25497;SDS011;13406;53.380;7.226;2022-12-07T00:55:25;7.50;;;1.47;;
25497;SDS011;13406;53.380;7.226;2022-12-07T00:57:50;6.93;;;1.30;;
25497;SDS011;13406;53.380;7.226;2022-12-07T01:00:15;7.30;;;1.43;;
25497;SDS011;13406;53.380;7.226;2022-12-07T01:02:41;7.20;;;1.20;;
25497;SDS011;13406;53.380;7.226;2022-12-07T01:05:06;5.17;;;1.20;;
25497;SDS011;13406;53.380;7.226;2022-12-07T01:07:31;13.93;;;3.00;;
25497;SDS011;13406;53.380;7.226;2022-12-07T01:09:57;6.37;;;1.00;;
25497;SDS011;13406;53.380;7.226;2022-12-07T01:12:22;11.73;;;1.20;;
25497;SDS011;13406;53.380;7.226;2022-12-07T01:14:48;3.57;;;1.00;;
25497;SDS011;13406;53.380;7.226;2022-12-07T01:17:13;9.17;;;0.97;;
25497;SDS011;13406;53.380;7.226;2022-12-07T01:19:38;1.40;;;1.00;;
25497;SDS011;13406;53.380;7.226;2022-12-07T01:22:04;2.80;;;0.80;;
25497;SDS011;13406;53.380;7.226;2022-12-07T01:24:29;4.77;;;1.00;;
25497;SDS011;13406;53.380;7.226;2022-12-07T01:26:54;2.17;;;1.00;;
25497;SDS011;13406;53.380;7.226;2022-12-07T01:29:20;13.37;;;1.30;;
25497;SDS011;13406;53.380;7.226;2022-12-07T01:31:47;4.80;;;0.90;;
25497;SDS011;13406;53.380;7.226;2022-12-07T01:34:13;4.80;;;1.13;;
25497;SDS011;13406;53.380;7.226;2022-12-07T01:36:41;4.83;;;1.10;;
25497;SDS011;13406;53.380;7.226;2022-12-07T01:39:07;7.27;;;1.30;;
25497;SDS011;13406;53.380;7.226;2022-12-07T01:41:33;5.37;;;1.73;;
25497;SDS011;13406;53.380;7.226;2022-12-07T01:44:14;4.07;;;1.10;;
25497;SDS011;13406;53.380;7.226;2022-12-07T01:46:41;5.53;;;1.20;;
25497;SDS011;13406;53.380;7.226;2022-12-07T01:49:08;4.93;;;1.10;;
25497;SDS011;13406;53.380;7.226;2022-12-07T01:51:38;6.93;;;1.10;;
25497;SDS011;13406;53.380;7.226;2022-12-07T01:54:05;9.50;;;1.20;;
25497;SDS011;13406;53.380;7.226;2022-12-07T01:56:30;6.40;;;1.33;;
25497;SDS011;13406;53.380;7.226;2022-12-07T01:58:56;3.63;;;1.27;;
25497;SDS011;13406;53.380;7.226;2022-12-07T02:01:24;4.97;;;1.20;;
25497;SDS011;13406;53.380;7.226;2022-12-07T02:03:49;3.13;;;1.00;;
25497;SDS011;13406;53.380;7.226;2022-12-07T02:06:16;5.00;;;1.47;;
25497;SDS011;13406;53.380;7.226;2022-12-07T02:08:43;9.20;;;1.23;;
25497;SDS011;13406;53.380;7.226;2022-12-07T02:11:11;4.97;;;0.90;;
25497;SDS011;13406;53.380;7.226;2022-12-07T02:13:38;7.90;;;1.10;;
25497;SDS011;13406;53.380;7.226;2022-12-07T02:24:03;4.60;;;1.17;;
25497;SDS011;13406;53.380;7.226;2022-12-07T02:26:46;5.43;;;1.70;;
25497;SDS011;13406;53.380;7.226;2022-12-07T02:29:20;4.07;;;1.17;;
25497;SDS011;13406;53.380;7.226;2022-12-07T02:34:50;3.43;;;1.30;;
25497;SDS011;13406;53.380;7.226;2022-12-07T02:37:18;6.63;;;1.30;;
25497;SDS011;13406;53.380;7.226;2022-12-07T02:39:53;4.10;;;1.23;;
25497;SDS011;13406;53.380;7.226;2022-12-07T02:42:24;6.80;;;1.40;;
25497;SDS011;13406;53.380;7.226;2022-12-07T02:44:51;7.53;;;1.40;;
25497;SDS011;13406;53.380;7.226;2022-12-07T02:47:17;3.43;;;0.80;;
25497;SDS011;13406;53.380;7.226;2022-12-07T02:49:44;6.73;;;0.87;;
25497;SDS011;13406;53.380;7.226;2022-12-07T02:52:10;2.23;;;0.80;;
25497;SDS011;13406;53.380;7.226;2022-12-07T02:54:35;3.83;;;1.00;;
25497;SDS011;13406;53.380;7.226;2022-12-07T02:59:36;5.73;;;1.20;;
25497;SDS011;13406;53.380;7.226;2022-12-07T03:07:11;4.50;;;1.50;;
25497;SDS011;13406;53.380;7.226;2022-12-07T03:09:45;7.67;;;1.17;;
25497;SDS011;13406;53.380;7.226;2022-12-07T03:12:16;4.13;;;1.10;;
25497;SDS011;13406;53.380;7.226;2022-12-07T03:14:50;4.40;;;1.00;;
25497;SDS011;13406;53.380;7.226;2022-12-07T03:17:22;5.30;;;1.20;;
25497;SDS011;13406;53.380;7.226;2022-12-07T03:19:49;4.80;;;1.10;;
25497;SDS011;13406;53.380;7.226;2022-12-07T03:22:15;10.30;;;1.30;;
25497;SDS011;13406;53.380;7.226;2022-12-07T03:24:43;4.10;;;1.00;;
25497;SDS011;13406;53.380;7.226;2022-12-07T03:27:17;6.50;;;1.10;;
25497;SDS011;13406;53.380;7.226;2022-12-07T03:29:48;4.87;;;0.90;;
25497;SDS011;13406;53.380;7.226;2022-12-07T03:34:47;7.10;;;1.13;;
25497;SDS011;13406;53.380;7.226;2022-12-07T03:37:18;4.90;;;1.40;;
25497;SDS011;13406;53.380;7.226;2022-12-07T03:42:12;5.43;;;1.30;;
25497;SDS011;13406;53.380;7.226;2022-12-07T03:44:37;3.87;;;1.47;;
25497;SDS011;13406;53.380;7.226;2022-12-07T03:47:13;7.80;;;1.40;;
25497;SDS011;13406;53.380;7.226;2022-12-07T03:49:43;7.40;;;1.50;;
25497;SDS011;13406;53.380;7.226;2022-12-07T03:52:30;13.53;;;1.40;;
25497;SDS011;13406;53.380;7.226;2022-12-07T03:55:02;10.37;;;1.90;;
25497;SDS011;13406;53.380;7.226;2022-12-07T03:57:29;9.53;;;1.97;;
25497;SDS011;13406;53.380;7.226;2022-12-07T03:59:55;7.27;;;1.60;;
25497;SDS011;13406;53.380;7.226;2022-12-07T04:02:21;5.37;;;1.17;;
25497;SDS011;13406;53.380;7.226;2022-12-07T04:04:47;2.20;;;1.10;;
25497;SDS011;13406;53.380;7.226;2022-12-07T04:07:12;4.57;;;0.90;;
25497;SDS011;13406;53.380;7.226;2022-12-07T04:09:38;5.63;;;1.20;;
25497;SDS011;13406;53.380;7.226;2022-12-07T04:12:03;7.20;;;1.73;;
25497;SDS011;13406;53.380;7.226;2022-12-07T04:14:29;4.37;;;1.10;;
25497;SDS011;13406;53.380;7.226;2022-12-07T04:16:55;3.67;;;0.97;;
25497;SDS011;13406;53.380;7.226;2022-12-07T04:19:25;5.63;;;1.30;;
25497;SDS011;13406;53.380;7.226;2022-12-07T04:21:50;4.80;;;0.87;;
25497;SDS011;13406;53.380;7.226;2022-12-07T04:24:15;4.83;;;1.00;;
25497;SDS011;13406;53.380;7.226;2022-12-07T04:26:41;4.97;;;1.23;;
25497;SDS011;13406;53.380;7.226;2022-12-07T04:29:07;3.00;;;0.80;;
25497;SDS011;13406;53.380;7.226;2022-12-07T04:31:32;3.13;;;0.90;;
25497;SDS011;13406;53.380;7.226;2022-12-07T04:33:58;3.10;;;0.80;;
25497;SDS011;13406;53.380;7.226;2022-12-07T04:36:23;6.37;;;1.10;;
25497;SDS011;13406;53.380;7.226;2022-12-07T04:38:48;3.77;;;0.90;;
25497;SDS011;13406;53.380;7.226;2022-12-07T04:41:14;2.20;;;1.10;;
25497;SDS011;13406;53.380;7.226;2022-12-07T04:43:39;4.07;;;0.90;;
25497;SDS011;13406;53.380;7.226;2022-12-07T04:46:04;2.53;;;0.90;;
25497;SDS011;13406;53.380;7.226;2022-12-07T04:48:30;4.17;;;0.80;;
25497;SDS011;13406;53.380;7.226;2022-12-07T04:50:56;7.20;;;0.70;;
25497;SDS011;13406;53.380;7.226;2022-12-07T04:53:21;4.00;;;0.93;;
25497;SDS011;13406;53.380;7.226;2022-12-07T04:55:47;5.83;;;0.80;;
25497;SDS011;13406;53.380;7.226;2022-12-07T04:58:12;6.60;;;0.90;;
25497;SDS011;13406;53.380;7.226;2022-12-07T05:00:38;1.97;;;0.60;;
25497;SDS011;13406;53.380;7.226;2022-12-07T05:03:03;2.13;;;0.70;;
25497;SDS011;13406;53.380;7.226;2022-12-07T05:05:28;6.27;;;0.83;;
25497;SDS011;13406;53.380;7.226;2022-12-07T05:07:54;4.60;;;0.80;;
25497;SDS011;13406;53.380;7.226;2022-12-07T05:10:19;3.23;;;0.83;;
25497;SDS011;13406;53.380;7.226;2022-12-07T05:12:44;6.40;;;1.30;;
25497;SDS011;13406;53.380;7.226;2022-12-07T05:15:11;4.87;;;1.10;;
25497;SDS011;13406;53.380;7.226;2022-12-07T05:17:39;6.20;;;1.10;;
25497;SDS011;13406;53.380;7.226;2022-12-07T05:20:04;4.83;;;1.20;;
25497;SDS011;13406;53.380;7.226;2022-12-07T05:22:30;3.03;;;0.90;;
25497;SDS011;13406;53.380;7.226;2022-12-07T05:24:55;3.80;;;1.10;;
25497;SDS011;13406;53.380;7.226;2022-12-07T05:27:20;3.00;;;0.90;;
25497;SDS011;13406;53.380;7.226;2022-12-07T05:29:46;4.50;;;1.00;;
25497;SDS011;13406;53.380;7.226;2022-12-07T05:32:11;3.53;;;1.00;;
25497;SDS011;13406;53.380;7.226;2022-12-07T05:34:37;4.30;;;1.00;;
25497;SDS011;13406;53.380;7.226;2022-12-07T05:37:02;1.50;;;0.90;;
25497;SDS011;13406;53.380;7.226;2022-12-07T05:39:28;5.80;;;1.30;;
25497;SDS011;13406;53.380;7.226;2022-12-07T05:41:53;3.57;;;0.83;;
25497;SDS011;13406;53.380;7.226;2022-12-07T05:44:37;3.07;;;0.80;;
25497;SDS011;13406;53.380;7.226;2022-12-07T05:47:02;2.93;;;1.00;;
25497;SDS011;13406;53.380;7.226;2022-12-07T05:49:35;2.30;;;1.00;;
25497;SDS011;13406;53.380;7.226;2022-12-07T05:52:10;3.30;;;0.90;;
25497;SDS011;13406;53.380;7.226;2022-12-07T05:54:36;2.50;;;0.80;;
25497;SDS011;13406;53.380;7.226;2022-12-07T05:57:01;3.10;;;1.10;;
25497;SDS011;13406;53.380;7.226;2022-12-07T05:59:26;6.33;;;0.93;;
25497;SDS011;13406;53.380;7.226;2022-12-07T06:01:56;8.50;;;1.40;;
25497;SDS011;13406;53.380;7.226;2022-12-07T06:04:22;5.10;;;2.00;;
25497;SDS011;13406;53.380;7.226;2022-12-07T06:06:47;2.37;;;1.37;;
25497;SDS011;13406;53.380;7.226;2022-12-07T06:09:13;5.70;;;1.30;;
25497;SDS011;13406;53.380;7.226;2022-12-07T06:11:39;11.33;;;1.70;;
25497;SDS011;13406;53.380;7.226;2022-12-07T06:14:23;12.93;;;1.50;;
25497;SDS011;13406;53.380;7.226;2022-12-07T06:16:48;7.33;;;1.57;;
25497;SDS011;13406;53.380;7.226;2022-12-07T06:19:13;8.03;;;1.40;;
25497;SDS011;13406;53.380;7.226;2022-12-07T06:21:39;7.80;;;1.30;;
25497;SDS011;13406;53.380;7.226;2022-12-07T06:24:04;6.33;;;1.40;;
25497;SDS011;13406;53.380;7.226;2022-12-07T06:26:30;12.43;;;2.10;;
25497;SDS011;13406;53.380;7.226;2022-12-07T06:28:55;5.97;;;1.63;;
25497;SDS011;13406;53.380;7.226;2022-12-07T06:31:20;8.73;;;1.73;;
25497;SDS011;13406;53.380;7.226;2022-12-07T06:33:46;4.00;;;1.80;;
25497;SDS011;13406;53.380;7.226;2022-12-07T06:36:11;7.07;;;1.13;;
25497;SDS011;13406;53.380;7.226;2022-12-07T06:38:36;9.00;;;1.87;;
25497;SDS011;13406;53.380;7.226;2022-12-07T06:41:02;10.30;;;1.80;;
25497;SDS011;13406;53.380;7.226;2022-12-07T06:43:27;6.03;;;1.30;;
25497;SDS011;13406;53.380;7.226;2022-12-07T06:45:52;3.87;;;1.10;;
25497;SDS011;13406;53.380;7.226;2022-12-07T06:48:18;3.03;;;0.90;;
25497;SDS011;13406;53.380;7.226;2022-12-07T06:50:46;4.17;;;1.37;;
25497;SDS011;13406;53.380;7.226;2022-12-07T06:53:11;3.90;;;0.97;;
25497;SDS011;13406;53.380;7.226;2022-12-07T06:55:37;4.20;;;0.70;;
25497;SDS011;13406;53.380;7.226;2022-12-07T06:58:02;1.97;;;1.17;;
25497;SDS011;13406;53.380;7.226;2022-12-07T07:00:28;4.20;;;1.00;;
25497;SDS011;13406;53.380;7.226;2022-12-07T07:02:53;4.83;;;0.90;;
25497;SDS011;13406;53.380;7.226;2022-12-07T07:05:18;5.50;;;1.10;;
25497;SDS011;13406;53.380;7.226;2022-12-07T07:07:46;7.10;;;2.13;;
25497;SDS011;13406;53.380;7.226;2022-12-07T07:10:12;12.70;;;5.67;;
25497;SDS011;13406;53.380;7.226;2022-12-07T07:12:38;9.03;;;5.13;;
25497;SDS011;13406;53.380;7.226;2022-12-07T07:15:03;7.67;;;2.43;;
25497;SDS011;13406;53.380;7.226;2022-12-07T07:17:29;7.50;;;1.97;;
25497;SDS011;13406;53.380;7.226;2022-12-07T07:19:54;10.03;;;2.60;;
25497;SDS011;13406;53.380;7.226;2022-12-07T07:22:19;10.90;;;3.20;;
25497;SDS011;13406;53.380;7.226;2022-12-07T07:24:45;5.90;;;2.23;;
25497;SDS011;13406;53.380;7.226;2022-12-07T07:27:10;7.37;;;2.00;;
25497;SDS011;13406;53.380;7.226;2022-12-07T07:29:36;4.17;;;1.27;;
25497;SDS011;13406;53.380;7.226;2022-12-07T07:32:01;5.77;;;1.73;;
25497;SDS011;13406;53.380;7.226;2022-12-07T07:34:26;4.57;;;1.20;;
25497;SDS011;13406;53.380;7.226;2022-12-07T07:36:52;4.90;;;1.20;;
25497;SDS011;13406;53.380;7.226;2022-12-07T07:39:17;6.23;;;1.73;;
25497;SDS011;13406;53.380;7.226;2022-12-07T07:41:43;3.60;;;1.10;;
25497;SDS011;13406;53.380;7.226;2022-12-07T07:44:09;3.83;;;1.10;;
25497;SDS011;13406;53.380;7.226;2022-12-07T07:46:34;5.10;;;1.27;;
25497;SDS011;13406;53.380;7.226;2022-12-07T07:49:02;3.30;;;1.10;;
25497;SDS011;13406;53.380;7.226;2022-12-07T07:51:27;2.73;;;0.80;;
25497;SDS011;13406;53.380;7.226;2022-12-07T07:53:52;6.90;;;1.47;;
25497;SDS011;13406;53.380;7.226;2022-12-07T07:56:18;4.33;;;0.97;;
25497;SDS011;13406;53.380;7.226;2022-12-07T07:58:43;8.37;;;1.50;;
25497;SDS011;13406;53.380;7.226;2022-12-07T08:01:08;9.07;;;1.43;;
25497;SDS011;13406;53.380;7.226;2022-12-07T08:03:36;10.43;;;1.93;;
25497;SDS011;13406;53.380;7.226;2022-12-07T08:06:02;2.60;;;1.20;;
25497;SDS011;13406;53.380;7.226;2022-12-07T08:08:27;6.93;;;1.83;;
25497;SDS011;13406;53.380;7.226;2022-12-07T08:10:53;4.57;;;1.30;;
25497;SDS011;13406;53.380;7.226;2022-12-07T08:13:18;7.13;;;1.70;;
25497;SDS011;13406;53.380;7.226;2022-12-07T08:15:44;7.40;;;1.60;;
25497;SDS011;13406;53.380;7.226;2022-12-07T08:18:10;6.67;;;1.37;;
25497;SDS011;13406;53.380;7.226;2022-12-07T08:20:36;4.43;;;1.20;;
25497;SDS011;13406;53.380;7.226;2022-12-07T08:23:01;5.60;;;1.40;;
25497;SDS011;13406;53.380;7.226;2022-12-07T08:25:27;6.30;;;1.67;;
25497;SDS011;13406;53.380;7.226;2022-12-07T08:27:53;4.53;;;1.67;;
25497;SDS011;13406;53.380;7.226;2022-12-07T08:30:19;3.53;;;1.50;;
25497;SDS011;13406;53.380;7.226;2022-12-07T08:32:45;3.57;;;1.40;;
25497;SDS011;13406;53.380;7.226;2022-12-07T08:35:10;4.57;;;1.97;;
25497;SDS011;13406;53.380;7.226;2022-12-07T08:37:35;8.57;;;3.73;;
25497;SDS011;13406;53.380;7.226;2022-12-07T08:40:01;13.93;;;4.97;;
25497;SDS011;13406;53.380;7.226;2022-12-07T08:42:27;8.77;;;3.13;;
25497;SDS011;13406;53.380;7.226;2022-12-07T08:44:55;4.23;;;2.00;;
25497;SDS011;13406;53.380;7.226;2022-12-07T08:47:20;5.10;;;1.60;;
25497;SDS011;13406;53.380;7.226;2022-12-07T08:49:46;4.47;;;1.40;;
25497;SDS011;13406;53.380;7.226;2022-12-07T08:52:12;3.57;;;2.30;;
25497;SDS011;13406;53.380;7.226;2022-12-07T08:54:38;4.17;;;1.30;;
25497;SDS011;13406;53.380;7.226;2022-12-07T08:57:04;5.73;;;1.13;;
25497;SDS011;13406;53.380;7.226;2022-12-07T08:59:29;9.33;;;1.53;;
25497;SDS011;13406;53.380;7.226;2022-12-07T09:01:55;4.03;;;1.30;;
25497;SDS011;13406;53.380;7.226;2022-12-07T09:04:20;5.67;;;1.30;;
25497;SDS011;13406;53.380;7.226;2022-12-07T09:06:48;3.67;;;1.03;;
25497;SDS011;13406;53.380;7.226;2022-12-07T09:09:13;3.40;;;1.10;;
25497;SDS011;13406;53.380;7.226;2022-12-07T09:11:39;3.50;;;1.10;;
25497;SDS011;13406;53.380;7.226;2022-12-07T09:14:04;1.60;;;0.80;;
25497;SDS011;13406;53.380;7.226;2022-12-07T09:16:29;2.03;;;0.70;;
25497;SDS011;13406;53.380;7.226;2022-12-07T09:18:55;1.83;;;0.70;;
25497;SDS011;13406;53.380;7.226;2022-12-07T09:21:20;3.40;;;0.83;;
25497;SDS011;13406;53.380;7.226;2022-12-07T09:23:45;3.17;;;0.70;;
25497;SDS011;13406;53.380;7.226;2022-12-07T09:26:11;5.30;;;1.00;;
25497;SDS011;13406;53.380;7.226;2022-12-07T09:28:36;1.70;;;0.60;;
25497;SDS011;13406;53.380;7.226;2022-12-07T09:31:02;3.43;;;0.80;;
25497;SDS011;13406;53.380;7.226;2022-12-07T09:33:28;1.97;;;1.00;;
25497;SDS011;13406;53.380;7.226;2022-12-07T09:35:53;5.50;;;0.90;;
25497;SDS011;13406;53.380;7.226;2022-12-07T09:38:19;8.60;;;1.30;;
25497;SDS011;13406;53.380;7.226;2022-12-07T09:40:44;4.10;;;1.57;;
25497;SDS011;13406;53.380;7.226;2022-12-07T09:43:20;4.50;;;1.27;;
25497;SDS011;13406;53.380;7.226;2022-12-07T09:45:55;3.73;;;1.10;;
25497;SDS011;13406;53.380;7.226;2022-12-07T09:48:22;4.30;;;1.10;;
25497;SDS011;13406;53.380;7.226;2022-12-07T09:50:49;2.60;;;1.00;;
25497;SDS011;13406;53.380;7.226;2022-12-07T09:53:20;3.90;;;1.10;;
25497;SDS011;13406;53.380;7.226;2022-12-07T09:55:47;4.00;;;1.00;;
25497;SDS011;13406;53.380;7.226;2022-12-07T09:58:17;6.60;;;1.30;;
25497;SDS011;13406;53.380;7.226;2022-12-07T10:00:44;6.33;;;1.73;;
25497;SDS011;13406;53.380;7.226;2022-12-07T10:03:10;6.73;;;1.37;;
25497;SDS011;13406;53.380;7.226;2022-12-07T10:05:40;3.27;;;0.90;;
25497;SDS011;13406;53.380;7.226;2022-12-07T10:08:08;2.63;;;0.60;;
25497;SDS011;13406;53.380;7.226;2022-12-07T10:10:35;5.57;;;0.97;;
25497;SDS011;13406;53.380;7.226;2022-12-07T10:15:43;4.27;;;0.83;;
25497;SDS011;13406;53.380;7.226;2022-12-07T10:23:32;1.10;;;0.70;;
25497;SDS011;13406;53.380;7.226;2022-12-07T10:25:57;5.20;;;0.80;;
25497;SDS011;13406;53.380;7.226;2022-12-07T10:28:23;9.43;;;1.27;;
25497;SDS011;13406;53.380;7.226;2022-12-07T10:30:50;1.73;;;0.83;;
25497;SDS011;13406;53.380;7.226;2022-12-07T10:33:29;5.40;;;1.80;;
25497;SDS011;13406;53.380;7.226;2022-12-07T10:35:55;10.07;;;1.17;;
25497;SDS011;13406;53.380;7.226;2022-12-07T10:38:20;2.37;;;0.90;;
25497;SDS011;13406;53.380;7.226;2022-12-07T10:40:45;2.43;;;1.10;;
25497;SDS011;13406;53.380;7.226;2022-12-07T10:45:38;3.23;;;1.10;;
25497;SDS011;13406;53.380;7.226;2022-12-07T10:48:15;5.07;;;1.10;;
25497;SDS011;13406;53.380;7.226;2022-12-07T10:58:30;3.57;;;1.27;;
25497;SDS011;13406;53.380;7.226;2022-12-07T11:06:11;10.63;;;1.40;;
25497;SDS011;13406;53.380;7.226;2022-12-07T11:11:37;5.17;;;1.40;;
25497;SDS011;13406;53.380;7.226;2022-12-07T11:14:21;5.43;;;1.37;;
25497;SDS011;13406;53.380;7.226;2022-12-07T11:37:23;5.13;;;1.20;;
25497;SDS011;13406;53.380;7.226;2022-12-07T11:39:54;4.20;;;1.20;;
25497;SDS011;13406;53.380;7.226;2022-12-07T11:42:44;5.87;;;1.30;;
25497;SDS011;13406;53.380;7.226;2022-12-07T11:45:15;6.90;;;1.30;;
25497;SDS011;13406;53.380;7.226;2022-12-07T11:55:18;3.53;;;1.30;;
25497;SDS011;13406;53.380;7.226;2022-12-07T11:57:45;5.57;;;1.37;;
25497;SDS011;13406;53.380;7.226;2022-12-07T12:00:15;3.73;;;1.30;;
25497;SDS011;13406;53.380;7.226;2022-12-07T12:05:29;4.70;;;1.13;;
25497;SDS011;13406;53.380;7.226;2022-12-07T12:07:59;3.60;;;1.90;;
25497;SDS011;13406;53.380;7.226;2022-12-07T12:15:26;1.47;;;1.17;;
25497;SDS011;13406;53.380;7.226;2022-12-07T12:20:27;4.33;;;1.30;;
25497;SDS011;13406;53.380;7.226;2022-12-07T12:25:29;2.60;;;1.10;;
25497;SDS011;13406;53.380;7.226;2022-12-07T12:27:57;5.37;;;1.40;;
25497;SDS011;13406;53.380;7.226;2022-12-07T12:32:54;7.20;;;1.20;;
25497;SDS011;13406;53.380;7.226;2022-12-07T12:35:36;4.57;;;1.00;;
25497;SDS011;13406;53.380;7.226;2022-12-07T12:40:45;3.10;;;1.33;;
25497;SDS011;13406;53.380;7.226;2022-12-07T12:51:43;3.30;;;1.00;;
25497;SDS011;13406;53.380;7.226;2022-12-07T12:54:19;3.27;;;1.03;;
25497;SDS011;13406;53.380;7.226;2022-12-07T12:59:19;5.30;;;0.90;;
25497;SDS011;13406;53.380;7.226;2022-12-07T13:01:47;5.93;;;1.20;;
25497;SDS011;13406;53.380;7.226;2022-12-07T13:04:24;5.07;;;1.20;;
25497;SDS011;13406;53.380;7.226;2022-12-07T13:06:50;3.53;;;1.20;;
25497;SDS011;13406;53.380;7.226;2022-12-07T13:09:26;7.20;;;1.70;;
25497;SDS011;13406;53.380;7.226;2022-12-07T13:11:56;2.43;;;1.00;;
25497;SDS011;13406;53.380;7.226;2022-12-07T13:17:10;10.03;;;1.40;;
25497;SDS011;13406;53.380;7.226;2022-12-07T13:22:53;3.47;;;1.30;;
25497;SDS011;13406;53.380;7.226;2022-12-07T13:25:12;4.83;;;1.17;;
25497;SDS011;13406;53.380;7.226;2022-12-07T13:27:41;4.50;;;1.20;;
25497;SDS011;13406;53.380;7.226;2022-12-07T13:30:13;3.67;;;1.10;;
25497;SDS011;13406;53.380;7.226;2022-12-07T13:32:39;8.70;;;1.40;;
25497;SDS011;13406;53.380;7.226;2022-12-07T13:35:26;6.33;;;1.43;;
25497;SDS011;13406;53.380;7.226;2022-12-07T13:37:50;4.40;;;1.23;;
25497;SDS011;13406;53.380;7.226;2022-12-07T13:40:18;5.90;;;1.20;;
25497;SDS011;13406;53.380;7.226;2022-12-07T13:42:44;8.07;;;1.40;;
25497;SDS011;13406;53.380;7.226;2022-12-07T13:45:27;6.30;;;1.37;;
25497;SDS011;13406;53.380;7.226;2022-12-07T13:48:22;2.60;;;0.70;;
25497;SDS011;13406;53.380;7.226;2022-12-07T13:50:53;2.53;;;1.07;;
25497;SDS011;13406;53.380;7.226;2022-12-07T13:53:19;4.80;;;1.50;;
25497;SDS011;13406;53.380;7.226;2022-12-07T13:55:45;2.40;;;0.87;;
25497;SDS011;13406;53.380;7.226;2022-12-07T13:58:10;4.23;;;1.17;;
25497;SDS011;13406;53.380;7.226;2022-12-07T14:00:36;3.23;;;1.07;;
25497;SDS011;13406;53.380;7.226;2022-12-07T14:03:03;2.37;;;1.07;;
25497;SDS011;13406;53.380;7.226;2022-12-07T14:05:29;2.80;;;1.20;;
25497;SDS011;13406;53.380;7.226;2022-12-07T14:07:56;4.03;;;1.10;;
25497;SDS011;13406;53.380;7.226;2022-12-07T14:10:25;8.43;;;1.47;;
25497;SDS011;13406;53.380;7.226;2022-12-07T14:12:51;3.77;;;1.20;;
25497;SDS011;13406;53.380;7.226;2022-12-07T14:15:20;2.83;;;0.87;;
25497;SDS011;13406;53.380;7.226;2022-12-07T14:17:54;8.63;;;1.83;;
25497;SDS011;13406;53.380;7.226;2022-12-07T14:22:54;3.87;;;1.10;;
25497;SDS011;13406;53.380;7.226;2022-12-07T14:25:21;2.70;;;0.90;;
25497;SDS011;13406;53.380;7.226;2022-12-07T14:28:09;4.10;;;1.00;;
25497;SDS011;13406;53.380;7.226;2022-12-07T14:30:35;3.80;;;1.20;;
25497;SDS011;13406;53.380;7.226;2022-12-07T14:33:01;3.60;;;1.27;;
25497;SDS011;13406;53.380;7.226;2022-12-07T14:35:28;4.20;;;1.20;;
25497;SDS011;13406;53.380;7.226;2022-12-07T14:37:53;6.10;;;1.53;;
25497;SDS011;13406;53.380;7.226;2022-12-07T14:40:28;3.50;;;1.33;;
25497;SDS011;13406;53.380;7.226;2022-12-07T14:42:56;6.40;;;1.93;;
25497;SDS011;13406;53.380;7.226;2022-12-07T14:45:22;4.13;;;1.27;;
25497;SDS011;13406;53.380;7.226;2022-12-07T14:47:48;4.20;;;1.03;;
25497;SDS011;13406;53.380;7.226;2022-12-07T14:50:14;3.53;;;1.10;;
25497;SDS011;13406;53.380;7.226;2022-12-07T14:52:40;5.27;;;1.80;;
25497;SDS011;13406;53.380;7.226;2022-12-07T14:55:12;9.73;;;2.87;;
25497;SDS011;13406;53.380;7.226;2022-12-07T14:57:38;5.53;;;2.50;;
25497;SDS011;13406;53.380;7.226;2022-12-07T15:00:03;6.20;;;2.47;;
25497;SDS011;13406;53.380;7.226;2022-12-07T15:02:29;8.20;;;2.50;;
25497;SDS011;13406;53.380;7.226;2022-12-07T15:04:54;10.40;;;3.57;;
25497;SDS011;13406;53.380;7.226;2022-12-07T15:07:20;11.20;;;3.10;;
25497;SDS011;13406;53.380;7.226;2022-12-07T15:09:46;7.50;;;2.63;;
25497;SDS011;13406;53.380;7.226;2022-12-07T15:12:11;3.13;;;1.27;;
25497;SDS011;13406;53.380;7.226;2022-12-07T15:14:37;2.60;;;0.90;;
25497;SDS011;13406;53.380;7.226;2022-12-07T15:17:02;2.40;;;0.90;;
25497;SDS011;13406;53.380;7.226;2022-12-07T15:19:27;3.17;;;1.00;;
25497;SDS011;13406;53.380;7.226;2022-12-07T15:21:53;1.83;;;0.70;;
25497;SDS011;13406;53.380;7.226;2022-12-07T15:24:19;2.00;;;0.83;;
25497;SDS011;13406;53.380;7.226;2022-12-07T15:26:45;2.20;;;0.77;;
25497;SDS011;13406;53.380;7.226;2022-12-07T15:29:10;3.47;;;1.10;;
25497;SDS011;13406;53.380;7.226;2022-12-07T15:31:36;3.83;;;1.00;;
25497;SDS011;13406;53.380;7.226;2022-12-07T15:34:02;3.40;;;1.50;;
25497;SDS011;13406;53.380;7.226;2022-12-07T15:36:29;1.73;;;0.80;;
25497;SDS011;13406;53.380;7.226;2022-12-07T15:38:55;2.93;;;0.80;;
25497;SDS011;13406;53.380;7.226;2022-12-07T15:41:20;1.67;;;0.73;;
25497;SDS011;13406;53.380;7.226;2022-12-07T15:43:46;7.60;;;1.37;;
25497;SDS011;13406;53.380;7.226;2022-12-07T15:46:34;2.50;;;1.47;;
25497;SDS011;13406;53.380;7.226;2022-12-07T15:49:00;3.83;;;1.40;;
25497;SDS011;13406;53.380;7.226;2022-12-07T15:51:25;2.87;;;1.10;;
25497;SDS011;13406;53.380;7.226;2022-12-07T15:53:50;5.00;;;1.10;;
25497;SDS011;13406;53.380;7.226;2022-12-07T15:56:16;4.80;;;1.30;;
25497;SDS011;13406;53.380;7.226;2022-12-07T15:58:41;4.77;;;1.47;;
25497;SDS011;13406;53.380;7.226;2022-12-07T16:01:10;3.40;;;1.40;;
25497;SDS011;13406;53.380;7.226;2022-12-07T16:03:36;7.03;;;2.07;;
25497;SDS011;13406;53.380;7.226;2022-12-07T16:06:01;5.53;;;2.73;;
25497;SDS011;13406;53.380;7.226;2022-12-07T16:08:26;9.80;;;2.60;;
25497;SDS011;13406;53.380;7.226;2022-12-07T16:10:52;5.27;;;2.00;;
25497;SDS011;13406;53.380;7.226;2022-12-07T16:13:17;3.80;;;1.20;;
25497;SDS011;13406;53.380;7.226;2022-12-07T16:15:44;3.67;;;1.10;;
25497;SDS011;13406;53.380;7.226;2022-12-07T16:18:09;2.70;;;1.00;;
25497;SDS011;13406;53.380;7.226;2022-12-07T16:20:35;3.33;;;1.20;;
25497;SDS011;13406;53.380;7.226;2022-12-07T16:23:00;3.43;;;1.00;;
25497;SDS011;13406;53.380;7.226;2022-12-07T16:25:25;4.03;;;0.90;;
25497;SDS011;13406;53.380;7.226;2022-12-07T16:27:51;1.53;;;0.77;;
25497;SDS011;13406;53.380;7.226;2022-12-07T16:30:16;1.80;;;0.80;;
25497;SDS011;13406;53.380;7.226;2022-12-07T16:32:42;1.10;;;0.60;;
25497;SDS011;13406;53.380;7.226;2022-12-07T16:35:08;1.00;;;0.60;;
25497;SDS011;13406;53.380;7.226;2022-12-07T16:37:33;1.83;;;0.67;;
25497;SDS011;13406;53.380;7.226;2022-12-07T16:39:59;1.63;;;0.60;;
25497;SDS011;13406;53.380;7.226;2022-12-07T16:42:24;2.67;;;1.27;;
25497;SDS011;13406;53.380;7.226;2022-12-07T16:44:50;2.23;;;1.10;;
25497;SDS011;13406;53.380;7.226;2022-12-07T16:47:15;2.13;;;1.87;;